createdAt,value
2022-07-28T00:00:20.607Z,11.93
2022-07-28T00:01:18.570Z,8.63
2022-07-28T00:02:16.725Z,10.95
2022-07-28T00:03:13.583Z,13.55
2022-07-28T00:04:10.425Z,12.65
2022-07-28T00:05:07.770Z,12.35
2022-07-28T00:06:04.575Z,16.17
2022-07-28T00:07:01.344Z,14.40
2022-07-28T00:07:58.074Z,13.77
2022-07-28T00:08:55.176Z,11.98
2022-07-28T00:09:55.607Z,11.20
2022-07-28T00:10:56.561Z,10.15
2022-07-28T00:11:54.762Z,12.00
2022-07-28T00:12:51.782Z,9.35
2022-07-28T00:13:48.532Z,8.32
2022-07-28T00:14:45.235Z,9.38
2022-07-28T00:15:41.923Z,8.60
2022-07-28T00:16:38.665Z,11.10
2022-07-28T00:17:35.528Z,12.55
2022-07-28T00:18:32.154Z,11.65
2022-07-28T00:19:28.774Z,9.05
2022-07-28T00:20:26.746Z,11.98
2022-07-28T00:21:24.471Z,11.10
2022-07-28T00:22:21.127Z,12.48
2022-07-28T00:23:17.802Z,11.40
2022-07-28T00:24:14.815Z,9.07
2022-07-28T00:25:12.591Z,11.25
2022-07-28T00:26:10.194Z,10.45
2022-07-28T00:27:07.401Z,12.77
2022-07-28T00:28:04.221Z,8.52
2022-07-28T00:29:01.014Z,10.88
2022-07-28T00:29:57.951Z,11.95
2022-07-28T00:30:55.663Z,13.48
2022-07-28T00:31:52.713Z,11.30
2022-07-28T00:32:49.636Z,14.68
2022-07-28T00:33:46.265Z,10.52
2022-07-28T00:34:43.331Z,10.32
2022-07-28T00:35:40.018Z,12.95
2022-07-28T00:36:45.024Z,12.68
2022-07-28T00:37:41.690Z,14.77
2022-07-28T00:38:38.345Z,13.27
2022-07-28T00:39:37.588Z,15.80
2022-07-28T00:40:52.998Z,14.32
2022-07-28T00:41:50.643Z,10.23
2022-07-28T00:42:47.414Z,12.70
2022-07-28T00:43:46.959Z,12.48
2022-07-28T00:44:43.662Z,13.25
2022-07-28T00:45:40.339Z,13.23
2022-07-28T00:46:37.076Z,10.70
2022-07-28T00:47:34.278Z,13.23
2022-07-28T00:48:30.959Z,12.23
2022-07-28T00:49:27.728Z,15.40
2022-07-28T00:50:24.359Z,18.58
2022-07-28T00:51:23.697Z,22.23
2022-07-28T00:52:21.521Z,18.52
2022-07-28T00:53:18.272Z,23.35
2022-07-28T00:54:15.242Z,16.20
2022-07-28T00:55:12.169Z,22.88
2022-07-28T00:56:09.258Z,21.80
2022-07-28T00:57:05.893Z,24.98
2022-07-28T00:58:02.570Z,18.60
2022-07-28T00:58:59.319Z,22.35
2022-07-28T00:59:56.035Z,24.95
2022-07-28T01:00:52.629Z,19.38
2022-07-28T01:01:49.848Z,20.25
2022-07-28T01:02:50.538Z,18.08
2022-07-28T01:04:04.200Z,20.27
2022-07-28T01:05:00.912Z,17.52
2022-07-28T01:06:08.852Z,15.35
2022-07-28T01:07:32.661Z,18.25
2022-07-28T01:09:46.710Z,20.17
2022-07-28T01:10:52.649Z,16.58
2022-07-28T01:11:52.145Z,17.67
2022-07-28T01:12:55.468Z,17.48
2022-07-28T01:13:59.705Z,16.00
2022-07-28T01:15:18.704Z,15.98
2022-07-28T01:16:15.734Z,14.27
2022-07-28T01:17:40.748Z,16.40
2022-07-28T01:18:54.664Z,13.32
2022-07-28T01:19:59.975Z,12.65
2022-07-28T01:21:11.917Z,14.18
2022-07-28T01:22:12.997Z,15.70
2022-07-28T01:23:12.719Z,16.70
2022-07-28T01:24:31.078Z,13.60
2022-07-28T01:25:50.500Z,14.98
2022-07-28T01:27:01.181Z,14.52
2022-07-28T01:28:13.613Z,16.88
2022-07-28T01:29:24.179Z,10.77
2022-07-28T01:30:39.165Z,12.52
2022-07-28T01:32:00.331Z,11.40
2022-07-28T01:33:04.141Z,13.82
2022-07-28T01:34:08.291Z,13.75
2022-07-28T01:35:23.312Z,15.10
2022-07-28T01:36:25.363Z,12.13
2022-07-28T01:37:26.629Z,13.30
2022-07-28T01:38:26.019Z,15.02
2022-07-28T01:39:27.467Z,17.73
2022-07-28T01:40:27.317Z,14.77
2022-07-28T01:41:27.862Z,14.85
2022-07-28T01:42:32.339Z,12.90
2022-07-28T01:43:32.438Z,14.32
2022-07-28T01:44:30.484Z,15.23
2022-07-28T01:45:28.480Z,14.13
2022-07-28T01:46:26.629Z,14.35
2022-07-28T01:47:25.281Z,17.05
2022-07-28T01:48:24.891Z,12.10
2022-07-28T01:49:23.274Z,15.52
2022-07-28T01:50:22.750Z,12.32
2022-07-28T01:51:21.082Z,11.60
2022-07-28T01:52:19.011Z,11.15
2022-07-28T01:53:17.236Z,12.77
2022-07-28T01:54:15.919Z,14.30
2022-07-28T01:55:14.270Z,11.57
2022-07-28T01:56:13.717Z,10.20
2022-07-28T01:57:14.658Z,11.90
2022-07-28T01:58:13.972Z,12.02
2022-07-28T01:59:12.273Z,11.98
2022-07-28T02:00:11.499Z,15.40
2022-07-28T02:01:11.862Z,11.02
2022-07-28T02:02:11.595Z,12.32
2022-07-28T02:03:10.844Z,13.63
2022-07-28T02:04:09.792Z,15.50
2022-07-28T02:05:08.731Z,14.35
2022-07-28T02:06:06.970Z,11.07
2022-07-28T02:07:08.996Z,12.18
2022-07-28T02:08:07.242Z,12.82
2022-07-28T02:09:05.553Z,13.50
2022-07-28T02:10:04.816Z,14.60
2022-07-28T02:11:31.144Z,11.70
2022-07-28T02:12:28.784Z,12.43
2022-07-28T02:13:25.508Z,10.07
2022-07-28T02:14:25.064Z,10.18
2022-07-28T02:15:23.349Z,12.18
2022-07-28T02:16:23.329Z,9.57
2022-07-28T02:17:25.382Z,10.43
2022-07-28T02:18:23.299Z,9.10
2022-07-28T02:19:21.412Z,13.90
2022-07-28T02:20:19.651Z,13.93
2022-07-28T02:21:17.455Z,11.15
2022-07-28T02:22:15.464Z,11.82
2022-07-28T02:23:14.806Z,11.25
2022-07-28T02:24:13.235Z,16.77
2022-07-28T02:25:10.901Z,14.73
2022-07-28T02:26:11.002Z,12.10
2022-07-28T02:27:15.626Z,14.90
2022-07-28T02:28:13.779Z,10.40
2022-07-28T02:29:33.430Z,11.18
2022-07-28T02:30:36.930Z,11.52
2022-07-28T02:31:51.726Z,11.43
2022-07-28T02:32:59.302Z,10.45
2022-07-28T02:34:02.072Z,12.15
2022-07-28T02:35:06.861Z,12.35
2022-07-28T02:36:14.159Z,15.63
2022-07-28T02:37:15.993Z,14.13
2022-07-28T02:38:17.948Z,13.27
2022-07-28T02:39:26.798Z,14.20
2022-07-28T02:40:24.619Z,11.13
2022-07-28T02:41:29.481Z,14.65
2022-07-28T02:42:30.807Z,14.10
2022-07-28T02:43:49.023Z,14.77
2022-07-28T02:44:55.387Z,14.77
2022-07-28T02:45:53.986Z,14.30
2022-07-28T02:46:54.994Z,12.10
2022-07-28T02:47:56.073Z,12.10
2022-07-28T02:49:00.454Z,12.35
2022-07-28T02:49:59.875Z,11.30
2022-07-28T02:50:58.286Z,16.58
2022-07-28T02:51:56.586Z,12.32
2022-07-28T02:53:00.918Z,10.32
2022-07-28T02:54:13.712Z,15.38
2022-07-28T02:55:14.501Z,12.43
2022-07-28T02:56:12.472Z,15.65
2022-07-28T02:57:10.611Z,14.95
2022-07-28T02:58:08.726Z,14.32
2022-07-28T02:59:05.622Z,15.43
2022-07-28T03:00:02.583Z,19.23
2022-07-28T03:01:00.455Z,12.82
2022-07-28T03:01:59.071Z,16.15
2022-07-28T03:02:56.761Z,13.80
2022-07-28T03:03:55.522Z,16.38
2022-07-28T03:04:59.721Z,11.07
2022-07-28T03:05:56.620Z,14.55
2022-07-28T03:06:53.463Z,13.50
2022-07-28T03:07:52.852Z,12.95
2022-07-28T03:08:50.477Z,15.88
2022-07-28T03:09:48.287Z,16.90
2022-07-28T03:10:45.164Z,12.68
2022-07-28T03:11:54.096Z,11.13
2022-07-28T03:12:50.698Z,11.38
2022-07-28T03:13:47.399Z,11.32
2022-07-28T03:14:44.034Z,10.10
2022-07-28T03:15:41.002Z,14.35
2022-07-28T03:16:37.738Z,15.80
2022-07-28T03:17:34.358Z,13.93
2022-07-28T03:18:31.212Z,12.77
2022-07-28T03:19:27.859Z,15.13
2022-07-28T03:20:24.503Z,13.52
2022-07-28T03:21:21.288Z,13.27
2022-07-28T03:22:17.949Z,16.23
2022-07-28T03:23:15.522Z,16.00
2022-07-28T03:24:12.798Z,12.15
2022-07-28T03:25:23.349Z,13.82
2022-07-28T03:26:27.759Z,10.50
2022-07-28T03:27:27.462Z,11.88
2022-07-28T03:28:25.155Z,16.63
2022-07-28T03:29:22.936Z,12.10
2022-07-28T03:30:24.344Z,15.45
2022-07-28T03:31:22.760Z,12.38
2022-07-28T03:32:21.498Z,13.57
2022-07-28T03:33:18.663Z,12.85
2022-07-28T03:34:16.144Z,19.45
2022-07-28T03:35:13.807Z,14.38
2022-07-28T03:36:15.577Z,14.20
2022-07-28T03:37:14.700Z,14.85
2022-07-28T03:38:18.093Z,13.93
2022-07-28T03:39:17.988Z,17.25
2022-07-28T03:40:15.302Z,13.38
2022-07-28T03:41:13.773Z,13.40
2022-07-28T03:42:11.476Z,14.50
2022-07-28T03:43:10.710Z,16.08
2022-07-28T03:44:10.665Z,13.25
2022-07-28T03:45:08.252Z,16.05
2022-07-28T03:46:07.588Z,13.18
2022-07-28T03:47:07.965Z,13.38
2022-07-28T03:48:04.983Z,13.00
2022-07-28T03:49:01.756Z,13.02
2022-07-28T03:49:58.436Z,12.02
2022-07-28T03:50:55.094Z,12.68
2022-07-28T03:51:51.753Z,11.13
2022-07-28T03:52:48.541Z,12.35
2022-07-28T03:53:45.262Z,11.85
2022-07-28T03:54:42.778Z,11.73
2022-07-28T03:55:39.361Z,12.18
2022-07-28T03:56:35.975Z,8.82
2022-07-28T03:57:32.555Z,11.68
2022-07-28T03:58:29.428Z,12.77
2022-07-28T03:59:26.086Z,11.70
2022-07-28T04:00:23.321Z,13.55
2022-07-28T04:01:20.004Z,11.05
2022-07-28T04:02:16.783Z,11.10
2022-07-28T04:03:22.590Z,11.85
2022-07-28T04:04:30.585Z,11.18
2022-07-28T04:05:27.367Z,12.30
2022-07-28T04:06:23.990Z,15.85
2022-07-28T04:07:20.741Z,12.80
2022-07-28T04:08:17.375Z,11.02
2022-07-28T04:09:14.115Z,14.80
2022-07-28T04:10:13.204Z,10.73
2022-07-28T04:11:09.896Z,10.73
2022-07-28T04:12:06.869Z,9.82
2022-07-28T04:13:03.822Z,12.88
2022-07-28T04:14:00.449Z,12.13
2022-07-28T04:14:57.066Z,12.10
2022-07-28T04:15:53.676Z,10.82
2022-07-28T04:16:50.482Z,11.77
2022-07-28T04:17:48.784Z,14.05
2022-07-28T04:18:45.502Z,12.90
2022-07-28T04:19:42.088Z,11.13
2022-07-28T04:20:38.718Z,15.35
2022-07-28T04:21:35.441Z,12.85
2022-07-28T04:22:32.139Z,13.88
2022-07-28T04:23:29.003Z,9.88
2022-07-28T04:24:25.634Z,11.55
2022-07-28T04:25:25.552Z,11.00
2022-07-28T04:26:22.217Z,13.30
2022-07-28T04:27:18.885Z,14.68
2022-07-28T04:28:15.821Z,15.07
2022-07-28T04:29:12.568Z,14.77
2022-07-28T04:30:13.309Z,14.57
2022-07-28T04:31:09.997Z,9.98
2022-07-28T04:32:06.741Z,11.63
2022-07-28T04:33:04.276Z,12.90
2022-07-28T04:34:00.978Z,14.30
2022-07-28T04:34:57.642Z,14.38
2022-07-28T04:35:54.281Z,13.82
2022-07-28T04:36:52.216Z,15.10
2022-07-28T04:37:49.295Z,14.52
2022-07-28T04:38:45.919Z,10.70
2022-07-28T04:39:42.573Z,11.73
2022-07-28T04:40:39.403Z,10.93
2022-07-28T04:41:36.455Z,11.32
2022-07-28T04:42:33.517Z,15.65
2022-07-28T04:43:30.164Z,10.77
2022-07-28T04:44:26.806Z,12.52
2022-07-28T04:45:23.499Z,10.18
2022-07-28T04:46:20.150Z,12.52
2022-07-28T04:47:17.131Z,11.32
2022-07-28T04:48:14.294Z,15.18
2022-07-28T04:49:13.805Z,15.93
2022-07-28T04:50:11.686Z,13.38
2022-07-28T04:51:08.295Z,12.50
2022-07-28T04:52:06.291Z,17.60
2022-07-28T04:53:05.672Z,14.77
2022-07-28T04:54:02.263Z,12.50
2022-07-28T04:54:58.881Z,17.15
2022-07-28T04:55:57.411Z,13.65
2022-07-28T04:56:54.420Z,13.50
2022-07-28T04:57:52.641Z,11.68
2022-07-28T04:58:49.794Z,11.70
2022-07-28T04:59:46.796Z,12.82
2022-07-28T05:00:45.805Z,11.77
2022-07-28T05:01:43.327Z,12.25
2022-07-28T05:02:41.911Z,15.25
2022-07-28T05:03:38.570Z,11.15
2022-07-28T05:04:35.310Z,11.68
2022-07-28T05:05:32.267Z,10.00
2022-07-28T05:06:28.857Z,17.10
2022-07-28T05:07:25.483Z,14.35
2022-07-28T05:08:26.218Z,15.23
2022-07-28T05:09:23.282Z,13.80
2022-07-28T05:10:20.639Z,16.48
2022-07-28T05:11:17.494Z,15.27
2022-07-28T05:12:14.097Z,14.60
2022-07-28T05:13:11.031Z,15.35
2022-07-28T05:14:07.694Z,12.65
2022-07-28T05:15:09.746Z,17.85
2022-07-28T05:16:06.532Z,11.60
2022-07-28T05:17:03.342Z,11.80
2022-07-28T05:18:00.452Z,14.30
2022-07-28T05:18:57.095Z,14.98
2022-07-28T05:19:53.847Z,9.60
2022-07-28T05:20:50.506Z,10.18
2022-07-28T05:21:47.196Z,11.52
2022-07-28T05:22:57.547Z,13.18
2022-07-28T05:23:54.345Z,13.43
2022-07-28T05:24:50.984Z,10.35
2022-07-28T05:25:47.871Z,10.18
2022-07-28T05:26:44.568Z,11.73
2022-07-28T05:27:41.212Z,10.05
2022-07-28T05:28:37.886Z,10.85
2022-07-28T05:29:47.384Z,10.68
2022-07-28T05:30:44.692Z,9.27
2022-07-28T05:31:41.395Z,12.57
2022-07-28T05:32:38.187Z,14.88
2022-07-28T05:33:35.526Z,10.95
2022-07-28T05:34:32.173Z,11.73
2022-07-28T05:35:28.902Z,11.52
2022-07-28T05:36:25.503Z,11.77
2022-07-28T05:37:22.326Z,9.85
2022-07-28T05:38:19.018Z,12.98
2022-07-28T05:39:16.219Z,11.52
2022-07-28T05:40:14.514Z,10.77
2022-07-28T05:41:11.235Z,9.75
2022-07-28T05:42:08.079Z,12.38
2022-07-28T05:43:04.694Z,10.80
2022-07-28T05:44:01.396Z,12.35
2022-07-28T05:44:58.015Z,14.45
2022-07-28T05:45:54.860Z,10.93
2022-07-28T05:46:51.711Z,11.95
2022-07-28T05:47:52.789Z,10.57
2022-07-28T05:48:50.067Z,12.88
2022-07-28T05:49:46.758Z,12.77
2022-07-28T05:50:43.350Z,10.75
2022-07-28T05:51:41.921Z,10.95
2022-07-28T05:52:38.954Z,10.60
2022-07-28T05:53:35.711Z,12.38
2022-07-28T05:54:32.392Z,17.13
2022-07-28T05:55:29.126Z,13.18
2022-07-28T05:56:25.843Z,11.88
2022-07-28T05:57:23.349Z,12.88
2022-07-28T05:58:23.751Z,16.08
2022-07-28T05:59:21.125Z,11.88
2022-07-28T06:00:20.851Z,11.70
2022-07-28T06:01:17.597Z,13.73
2022-07-28T06:02:14.397Z,10.57
2022-07-28T06:03:11.074Z,11.63
2022-07-28T06:04:27.256Z,13.10
2022-07-28T06:05:24.455Z,13.55
2022-07-28T06:06:21.301Z,14.18
2022-07-28T06:07:17.901Z,12.80
2022-07-28T06:08:14.723Z,10.82
2022-07-28T06:09:12.784Z,17.95
2022-07-28T06:10:10.660Z,10.90
2022-07-28T06:11:11.693Z,14.40
2022-07-28T06:12:08.929Z,13.15
2022-07-28T06:13:06.724Z,13.57
2022-07-28T06:14:03.345Z,11.00
2022-07-28T06:15:04.175Z,12.25
2022-07-28T06:16:00.994Z,9.75
2022-07-28T06:16:57.780Z,11.10
2022-07-28T06:17:55.819Z,11.90
2022-07-28T06:18:52.838Z,16.15
2022-07-28T06:19:49.434Z,12.65
2022-07-28T06:20:47.121Z,10.55
2022-07-28T06:21:44.005Z,15.40
2022-07-28T06:22:45.254Z,11.95
2022-07-28T06:23:41.978Z,15.15
2022-07-28T06:24:38.631Z,13.63
2022-07-28T06:25:35.406Z,15.23
2022-07-28T06:26:32.169Z,11.38
2022-07-28T06:27:28.763Z,13.45
2022-07-28T06:28:25.501Z,14.55
2022-07-28T06:29:24.274Z,11.27
2022-07-28T06:30:21.394Z,12.70
2022-07-28T06:31:18.238Z,12.57
2022-07-28T06:32:17.157Z,13.88
2022-07-28T06:33:17.286Z,12.05
2022-07-28T06:34:14.556Z,10.10
2022-07-28T06:35:14.867Z,10.20
2022-07-28T06:36:11.532Z,12.88
2022-07-28T06:37:08.158Z,9.07
2022-07-28T06:38:04.766Z,13.73
2022-07-28T06:39:01.585Z,13.27
2022-07-28T06:39:58.518Z,11.57
2022-07-28T06:40:55.212Z,10.20
2022-07-28T06:41:51.888Z,11.70
2022-07-28T06:42:49.618Z,9.95
2022-07-28T06:43:46.931Z,11.15
2022-07-28T06:44:58.513Z,11.45
2022-07-28T06:45:55.808Z,11.00
2022-07-28T06:46:52.577Z,10.80
2022-07-28T06:47:53.196Z,10.70
2022-07-28T06:48:50.168Z,12.02
2022-07-28T06:49:46.887Z,10.27
2022-07-28T06:50:43.593Z,10.75
2022-07-28T06:51:40.232Z,9.85
2022-07-28T06:52:37.276Z,11.02
2022-07-28T06:53:34.646Z,9.90
2022-07-28T06:54:32.230Z,12.57
2022-07-28T06:55:35.109Z,10.88
2022-07-28T06:56:32.386Z,12.85
2022-07-28T06:57:33.585Z,11.25
2022-07-28T06:58:30.550Z,10.48
2022-07-28T06:59:27.204Z,10.77
2022-07-28T07:00:24.029Z,12.77
2022-07-28T07:01:20.785Z,12.00
2022-07-28T07:02:17.975Z,17.13
2022-07-28T07:03:14.597Z,11.98
2022-07-28T07:04:11.588Z,11.15
2022-07-28T07:05:09.916Z,14.48
2022-07-28T07:06:06.732Z,12.00
2022-07-28T07:07:03.772Z,13.48
2022-07-28T07:08:11.669Z,13.40
2022-07-28T07:09:08.338Z,18.80
2022-07-28T07:10:06.058Z,11.07
2022-07-28T07:11:02.781Z,14.88
2022-07-28T07:12:00.781Z,15.43
2022-07-28T07:12:57.617Z,15.55
2022-07-28T07:13:54.500Z,18.45
2022-07-28T07:14:51.217Z,13.63
2022-07-28T07:15:47.970Z,14.98
2022-07-28T07:16:44.824Z,20.08
2022-07-28T07:17:42.494Z,15.77
2022-07-28T07:18:39.114Z,15.48
2022-07-28T07:19:35.763Z,16.00
2022-07-28T07:20:32.467Z,12.13
2022-07-28T07:21:29.133Z,12.05
2022-07-28T07:22:25.824Z,15.63
2022-07-28T07:23:22.665Z,11.95
2022-07-28T07:24:19.486Z,13.38
2022-07-28T07:25:20.178Z,12.57
2022-07-28T07:26:17.017Z,11.80
2022-07-28T07:27:13.712Z,11.23
2022-07-28T07:28:10.332Z,12.30
2022-07-28T07:29:08.324Z,11.15
2022-07-28T07:30:06.878Z,13.98
2022-07-28T07:31:03.650Z,10.15
2022-07-28T07:32:00.465Z,11.15
2022-07-28T07:32:57.148Z,9.90
2022-07-28T07:33:53.807Z,11.13
2022-07-28T07:34:50.441Z,13.52
2022-07-28T07:35:47.153Z,12.18
2022-07-28T07:36:43.831Z,9.35
2022-07-28T07:37:40.907Z,11.43
2022-07-28T07:38:38.751Z,9.80
2022-07-28T07:39:35.389Z,11.50
2022-07-28T07:40:32.354Z,10.80
2022-07-28T07:41:29.079Z,12.45
2022-07-28T07:42:27.819Z,10.02
2022-07-28T07:43:24.612Z,13.50
2022-07-28T07:44:21.226Z,10.43
2022-07-28T07:45:17.948Z,12.65
2022-07-28T07:46:15.797Z,11.07
2022-07-28T07:47:12.478Z,13.05
2022-07-28T07:48:09.183Z,9.25
2022-07-28T07:49:06.466Z,9.80
2022-07-28T07:50:04.784Z,15.13
2022-07-28T07:51:01.478Z,9.60
2022-07-28T07:51:58.242Z,11.57
2022-07-28T07:52:55.202Z,9.43
2022-07-28T07:53:51.859Z,10.15
2022-07-28T07:54:48.595Z,10.88
2022-07-28T07:55:45.319Z,9.60
2022-07-28T07:56:41.954Z,9.27
2022-07-28T07:57:38.642Z,13.15
2022-07-28T07:58:35.329Z,10.50
2022-07-28T07:59:31.922Z,13.38
2022-07-28T08:00:29.652Z,10.98
2022-07-28T08:01:26.424Z,9.30
2022-07-28T08:02:23.151Z,9.15
2022-07-28T08:03:22.441Z,9.48
2022-07-28T08:04:19.795Z,12.25
2022-07-28T08:05:22.386Z,9.50
2022-07-28T08:06:32.862Z,13.27
2022-07-28T08:07:32.606Z,8.95
2022-07-28T08:08:30.397Z,10.43
2022-07-28T08:09:27.119Z,8.45
2022-07-28T08:10:23.808Z,8.73
2022-07-28T08:11:20.435Z,9.02
2022-07-28T08:12:17.112Z,10.05
2022-07-28T08:13:23.168Z,11.23
2022-07-28T08:14:19.807Z,18.05
2022-07-28T08:15:16.454Z,8.73
2022-07-28T08:16:13.144Z,10.63
2022-07-28T08:17:09.805Z,11.77
2022-07-28T08:18:06.417Z,8.55
2022-07-28T08:19:03.596Z,8.52
2022-07-28T08:20:04.271Z,11.10
2022-07-28T08:21:00.918Z,12.68
2022-07-28T08:21:57.524Z,8.68
2022-07-28T08:22:57.241Z,8.77
2022-07-28T08:23:56.008Z,9.90
2022-07-28T08:24:52.694Z,9.13
2022-07-28T08:25:49.296Z,8.70
2022-07-28T08:26:45.952Z,10.10
2022-07-28T08:27:42.647Z,10.77
2022-07-28T08:28:39.386Z,8.63
2022-07-28T08:29:36.265Z,9.00
2022-07-28T08:30:33.296Z,9.35
2022-07-28T08:31:30.155Z,8.45
2022-07-28T08:32:31.992Z,11.18
2022-07-28T08:33:28.689Z,9.25
2022-07-28T08:34:31.226Z,9.70
2022-07-28T08:35:33.428Z,8.45
2022-07-28T08:36:32.301Z,12.00
2022-07-28T08:37:29.043Z,10.82
2022-07-28T08:38:26.398Z,9.48
2022-07-28T08:39:23.571Z,12.05
2022-07-28T08:40:22.467Z,10.05
2022-07-28T08:41:46.999Z,11.27
2022-07-28T08:42:56.399Z,9.68
2022-07-28T08:43:55.029Z,11.63
2022-07-28T08:44:55.089Z,9.80
2022-07-28T08:45:58.096Z,9.95
2022-07-28T08:46:55.963Z,9.52
2022-07-28T08:48:08.253Z,9.23
2022-07-28T08:50:05.163Z,22.88
2022-07-28T08:51:11.391Z,8.98
2022-07-28T08:52:13.945Z,9.25
2022-07-28T08:54:10.398Z,9.82
2022-07-28T08:55:08.779Z,10.15
2022-07-28T08:56:07.933Z,9.45
2022-07-28T08:57:04.716Z,9.75
2022-07-28T08:58:04.099Z,9.50
2022-07-28T08:59:03.004Z,10.50
2022-07-28T08:59:59.760Z,10.68
2022-07-28T09:00:57.434Z,9.95
2022-07-28T09:01:57.653Z,10.07
2022-07-28T09:02:55.558Z,11.52
2022-07-28T09:03:52.953Z,10.00
2022-07-28T09:04:50.948Z,10.40
2022-07-28T09:05:50.060Z,10.05
2022-07-28T09:06:47.776Z,9.90
2022-07-28T09:07:54.095Z,10.55
2022-07-28T09:08:51.389Z,9.63
2022-07-28T09:09:49.671Z,10.25
2022-07-28T09:10:47.466Z,10.25
2022-07-28T09:11:44.129Z,9.25
2022-07-28T09:12:40.761Z,10.25
2022-07-28T09:13:38.368Z,11.75
2022-07-28T09:14:35.272Z,14.10
2022-07-28T09:15:32.929Z,8.63
2022-07-28T09:16:29.706Z,9.02
2022-07-28T09:17:26.409Z,8.77
2022-07-28T09:18:23.221Z,8.85
2022-07-28T09:19:19.867Z,9.82
2022-07-28T09:20:17.159Z,9.07
2022-07-28T09:21:15.498Z,8.52
2022-07-28T09:22:13.362Z,9.63
2022-07-28T09:23:42.515Z,13.07
2022-07-28T09:24:39.796Z,8.93
2022-07-28T09:25:36.675Z,8.75
2022-07-28T09:26:33.407Z,9.65
2022-07-28T09:27:47.336Z,11.57
2022-07-28T09:28:53.007Z,9.60
2022-07-28T09:29:59.343Z,8.73
2022-07-28T09:30:57.350Z,8.70
2022-07-28T09:31:57.156Z,10.07
2022-07-28T09:33:42.397Z,8.52
2022-07-28T09:34:48.117Z,10.52
2022-07-28T09:35:57.056Z,11.23
2022-07-28T09:36:53.796Z,9.35
2022-07-28T09:37:59.888Z,10.18
2022-07-28T09:38:57.036Z,9.48
2022-07-28T09:39:59.235Z,9.98
2022-07-28T09:41:57.339Z,8.95
2022-07-28T09:42:57.344Z,8.40
2022-07-28T09:43:55.579Z,8.02
2022-07-28T09:45:25.308Z,14.23
2022-07-28T09:46:25.751Z,8.90
2022-07-28T09:47:27.991Z,8.60
2022-07-28T09:48:24.996Z,8.68
2022-07-28T09:49:38.304Z,8.70
2022-07-28T09:50:35.745Z,9.80
2022-07-28T09:51:35.905Z,10.70
2022-07-28T09:52:36.630Z,7.32
2022-07-28T09:53:33.364Z,7.20
2022-07-28T09:54:30.110Z,6.55
2022-07-28T09:55:26.787Z,7.97
2022-07-28T09:56:25.950Z,9.10
2022-07-28T09:57:29.708Z,7.95
2022-07-28T09:58:30.512Z,8.70
2022-07-28T09:59:50.649Z,7.65
2022-07-28T10:00:50.502Z,8.32
2022-07-28T10:01:55.447Z,10.48
2022-07-28T10:02:53.537Z,9.15
2022-07-28T10:04:02.737Z,9.02
2022-07-28T10:05:00.901Z,9.15
2022-07-28T10:05:59.213Z,8.88
2022-07-28T10:07:17.429Z,9.60
2022-07-28T10:08:14.010Z,8.05
2022-07-28T10:09:14.450Z,8.43
2022-07-28T10:10:11.423Z,8.85
2022-07-28T10:11:08.618Z,11.18
2022-07-28T10:12:19.280Z,10.23
2022-07-28T10:13:15.890Z,10.05
2022-07-28T10:14:13.798Z,8.43
2022-07-28T10:15:33.862Z,8.13
2022-07-28T10:16:42.800Z,9.13
2022-07-28T10:17:39.656Z,8.30
2022-07-28T10:18:36.612Z,11.00
2022-07-28T10:19:33.418Z,8.02
2022-07-28T10:20:33.059Z,8.23
2022-07-28T10:21:33.687Z,8.35
2022-07-28T10:22:39.460Z,9.27
2022-07-28T10:23:39.935Z,10.60
2022-07-28T10:24:39.039Z,10.82
2022-07-28T10:25:38.885Z,10.45
2022-07-28T10:26:43.677Z,10.55
2022-07-28T10:27:42.339Z,10.27
2022-07-28T10:28:46.776Z,10.52
2022-07-28T10:29:44.539Z,12.00
2022-07-28T10:30:42.463Z,9.55
2022-07-28T10:31:53.938Z,9.13
2022-07-28T10:32:53.553Z,9.77
2022-07-28T10:33:53.574Z,9.35
2022-07-28T10:35:02.947Z,12.02
2022-07-28T10:36:00.842Z,9.77
2022-07-28T10:37:02.206Z,10.02
2022-07-28T10:38:04.904Z,8.90
2022-07-28T10:39:22.469Z,8.85
2022-07-28T10:40:25.055Z,10.45
2022-07-28T10:41:24.457Z,10.75
2022-07-28T10:42:27.563Z,9.95
2022-07-28T10:43:26.606Z,12.77
2022-07-28T10:44:24.488Z,8.95
2022-07-28T10:45:21.563Z,14.00
2022-07-28T10:46:18.485Z,9.82
2022-07-28T10:47:18.181Z,10.85
2022-07-28T10:48:16.867Z,9.43
2022-07-28T10:49:14.845Z,10.38
2022-07-28T10:50:11.665Z,9.60
2022-07-28T10:51:08.699Z,9.70
2022-07-28T10:52:15.479Z,11.88
2022-07-28T10:53:43.869Z,9.90
2022-07-28T10:55:07.771Z,12.40
2022-07-28T10:56:21.741Z,12.68
2022-07-28T10:57:21.435Z,13.13
2022-07-28T10:58:33.930Z,11.80
2022-07-28T11:00:12.152Z,10.10
2022-07-28T11:01:17.174Z,10.63
2022-07-28T11:02:50.546Z,10.02
2022-07-28T11:03:47.696Z,10.60
2022-07-28T11:04:45.206Z,10.60
2022-07-28T11:05:42.648Z,10.05
2022-07-28T11:06:45.973Z,10.32
2022-07-28T11:07:42.845Z,10.40
2022-07-28T11:08:39.523Z,10.50
2022-07-28T11:09:36.359Z,10.45
2022-07-28T11:10:46.558Z,10.15
2022-07-28T11:11:52.760Z,8.75
2022-07-28T11:12:55.559Z,12.45
2022-07-28T11:14:49.419Z,8.77
2022-07-28T11:15:46.479Z,9.38
2022-07-28T11:16:44.157Z,10.43
2022-07-28T11:17:57.704Z,9.55
2022-07-28T11:19:02.013Z,12.50
2022-07-28T11:20:27.154Z,8.70
2022-07-28T11:21:18.306Z,8.73
2022-07-28T11:22:15.084Z,8.90
2022-07-28T11:23:41.192Z,8.95
2022-07-28T11:24:58.759Z,9.20
2022-07-28T11:26:20.877Z,8.02
2022-07-28T11:27:17.479Z,9.13
2022-07-28T11:28:14.108Z,7.50
2022-07-28T11:29:14.359Z,8.23
2022-07-28T11:30:13.017Z,8.90
2022-07-28T11:31:09.800Z,8.05
2022-07-28T11:32:06.549Z,8.73
2022-07-28T11:33:05.218Z,8.15
2022-07-28T11:34:03.983Z,8.82
2022-07-28T11:35:08.730Z,11.93
2022-07-28T11:36:05.583Z,10.10
2022-07-28T11:37:04.102Z,9.25
2022-07-28T11:38:00.735Z,8.30
2022-07-28T11:39:26.207Z,8.98
2022-07-28T11:40:45.536Z,8.13
2022-07-28T11:41:42.259Z,8.43
2022-07-28T11:42:41.766Z,7.93
2022-07-28T11:43:40.252Z,8.18
2022-07-28T11:44:37.118Z,7.82
2022-07-28T11:45:37.603Z,8.40
2022-07-28T11:46:37.578Z,8.95
2022-07-28T11:47:35.168Z,8.88
2022-07-28T11:48:33.072Z,9.30
2022-07-28T11:49:29.843Z,8.45
2022-07-28T11:50:26.535Z,10.38
2022-07-28T11:51:23.965Z,9.38
2022-07-28T11:52:22.975Z,7.78
2022-07-28T11:53:20.031Z,10.55
2022-07-28T11:54:17.573Z,8.40
2022-07-28T11:55:18.222Z,10.65
2022-07-28T11:56:22.005Z,10.77
2022-07-28T11:57:21.347Z,10.30
2022-07-28T11:58:25.733Z,7.97
2022-07-28T11:59:24.777Z,10.23
2022-07-28T12:00:33.526Z,9.75
2022-07-28T12:01:31.956Z,8.77
2022-07-28T12:02:31.515Z,8.85
2022-07-28T12:03:49.445Z,8.32
2022-07-28T12:04:55.894Z,9.88
2022-07-28T12:05:58.721Z,10.15
2022-07-28T12:06:55.977Z,9.52
2022-07-28T12:07:53.090Z,9.15
2022-07-28T12:08:53.937Z,10.27
2022-07-28T12:09:51.101Z,9.75
2022-07-28T12:10:55.898Z,9.02
2022-07-28T12:11:55.431Z,9.40
2022-07-28T12:13:00.613Z,8.90
2022-07-28T12:14:03.373Z,11.35
2022-07-28T12:15:04.766Z,7.68
2022-07-28T12:16:03.596Z,10.23
2022-07-28T12:17:00.318Z,11.20
2022-07-28T12:17:59.257Z,9.45
2022-07-28T12:18:56.433Z,9.57
2022-07-28T12:19:53.170Z,12.43
2022-07-28T12:20:52.892Z,10.43
2022-07-28T12:21:55.551Z,9.60
2022-07-28T12:23:04.675Z,12.10
2022-07-28T12:24:01.367Z,8.30
2022-07-28T12:24:59.084Z,13.50
2022-07-28T12:25:55.847Z,11.98
2022-07-28T12:26:52.694Z,10.50
2022-07-28T12:27:49.425Z,8.93
2022-07-28T12:28:50.697Z,8.02
2022-07-28T12:29:58.443Z,9.55
2022-07-28T12:30:55.331Z,7.85
2022-07-28T12:32:09.966Z,7.75
2022-07-28T12:33:20.624Z,9.55
2022-07-28T12:34:17.744Z,8.02
2022-07-28T12:35:14.937Z,7.15
2022-07-28T12:36:11.977Z,9.23
2022-07-28T12:37:12.506Z,9.05
2022-07-28T12:38:09.422Z,8.00
2022-07-28T12:39:12.826Z,8.93
2022-07-28T12:40:13.032Z,7.30
2022-07-28T12:41:16.023Z,8.30
2022-07-28T12:42:13.420Z,7.80
2022-07-28T12:43:10.145Z,9.32
2022-07-28T12:44:07.089Z,7.95
2022-07-28T12:45:05.500Z,8.07
2022-07-28T12:46:02.208Z,7.75
2022-07-28T12:46:59.377Z,8.00
2022-07-28T12:47:56.046Z,8.50
2022-07-28T12:48:53.757Z,8.20
2022-07-28T12:50:08.603Z,8.68
2022-07-28T12:51:05.252Z,10.00
2022-07-28T12:52:38.026Z,6.60
2022-07-28T12:53:34.672Z,7.40
2022-07-28T12:54:36.724Z,7.13
2022-07-28T12:55:33.870Z,7.68
2022-07-28T12:56:30.714Z,6.25
2022-07-28T12:57:50.590Z,6.30
2022-07-28T12:58:48.253Z,7.28
2022-07-28T12:59:45.003Z,7.95
2022-07-28T13:00:49.857Z,7.57
2022-07-28T13:01:54.892Z,7.72
2022-07-28T13:02:56.211Z,9.27
2022-07-28T13:03:54.139Z,7.10
2022-07-28T13:04:51.225Z,9.27